Rock Creek, MN (55067)

8:46 PM CDT on August 20, 2014 (GMT -0500)
Rush City Regional | Change Station
CLOSE
Current Station
Airport
Location: Rush City,
Elevation: 922 ft
Nearby Weather Stations

Elev 922 ft 45.70 °N, 92.95 °W | Updated 12 minutes ago

Clear
Clear
69 °F
Feels Like 69 °F
N
5
Wind Variable Wind from East

Today
High -- | Low -- °F
--% Chance of Precip.
Yesterday
High -- | Low -- °F
Precip. -- in
6:17 AM 8:11 PM
Waning Crescent, 18% visible
Pressure 29.89 in
Visibility 10.0 miles
Clouds Clear
Dew Point 64 °F
Humidity 81%
Rainfall 0.00 in
Snow Depth Not available.
UV 0 out of 12
Pollen 9.80 out of 12
Air Quality Not available.
Flu Activity Not available.
METAR KROS 210134Z AUTO 08004KT 10SM CLR 21/18 A2989 RMK AO2 T02080175

More Conditions Fewer Conditions

Pressure 29.89 in
Visibility 10.0 miles
Clouds Clear
Dew Point 64 °F
Humidity 81%
Rainfall 0.00 in
Snow Depth Not available.
UV 0 out of 12
Pollen 9.80 out of 12
Air Quality Not available.
Flu Activity Not available.
METAR KROS 210134Z AUTO 08004KT 10SM CLR 21/18 A2989 RMK AO2 T02080175

More Conditions Fewer Conditions

10-Day Weather Forecast

Almanac

Astronomy

Aug. 20, 2014 Rise Set
Actual Time 6:17 AM CDT 8:11 PM CDT
Civil Twilight 5:46 AM CDT 8:43 PM CDT
Nautical Twilight 5:06 AM CDT 9:22 PM CDT
Astronomical Twilight 4:23 AM CDT 10:04 PM CDT
Moon 1:52 AM CDT (8/20) 5:02 PM CDT (8/20)
Length of Visible Light 14h 57m
Length of Day
13h 53m
Tomorrow will be 2m 58s shorter.
Waning Crescent, 18% of the Moon is Illuminated
Today
Waning Crescent
Aug 25
New
Sep 2
First Quarter
Sep 8
Full
Sep 15
Last Quarter

Today's Extremes

State Highs State Lows

Community

WunderPhotos

Upload Photos

1,745,859 photos uploaded!

WunderBlogs® & News

Nearby

Snow Depth

Station Depth Elevation
No new snow has been reported.

Earthquake Activity

City Distance Mag. Time & Date
No recent earthquake activity has been reported nearby.
Minimum magnitude displayed is 2.5.

Coastal Water Temperatures

Place Temperature
No Stations Reporting

Nearby Weather Stations